createdAt,value
2022-08-10T00:00:26.447Z,22.64
2022-08-10T00:01:26.498Z,22.62
2022-08-10T00:02:26.469Z,22.58
2022-08-10T00:03:26.412Z,22.53
2022-08-10T00:04:26.401Z,22.59
2022-08-10T00:05:26.396Z,22.53
2022-08-10T00:06:26.416Z,22.52
2022-08-10T00:07:26.367Z,22.52
2022-08-10T00:08:26.357Z,22.51
2022-08-10T00:09:26.353Z,22.51
2022-08-10T00:10:26.337Z,22.46
2022-08-10T00:11:26.353Z,22.53
2022-08-10T00:12:53.146Z,22.41
2022-08-10T00:13:27.302Z,22.40
2022-08-10T00:14:26.294Z,22.41
2022-08-10T00:15:52.964Z,22.34
2022-08-10T00:16:27.307Z,22.31
2022-08-10T00:17:26.261Z,22.37
2022-08-10T00:18:34.582Z,22.34
2022-08-10T00:19:27.264Z,22.33
2022-08-10T00:20:27.227Z,22.25
2022-08-10T00:21:27.343Z,22.30
2022-08-10T00:22:26.209Z,22.23
2022-08-10T00:23:26.203Z,22.33
2022-08-10T00:24:26.222Z,22.22
2022-08-10T00:25:26.172Z,22.27
2022-08-10T00:26:26.158Z,22.27
2022-08-10T00:28:01.954Z,22.18
2022-08-10T00:28:27.135Z,22.16
2022-08-10T00:29:26.129Z,22.16
2022-08-10T00:30:26.160Z,22.16
2022-08-10T00:31:26.104Z,22.13
2022-08-10T00:32:26.205Z,22.03
2022-08-10T00:33:26.104Z,22.13
2022-08-10T00:34:26.081Z,22.06
2022-08-10T00:35:26.066Z,22.11
2022-08-10T00:36:26.079Z,22.13
2022-08-10T00:37:26.046Z,22.11
2022-08-10T00:38:26.028Z,22.04
2022-08-10T00:39:26.236Z,22.09
2022-08-10T00:40:37.329Z,22.04
2022-08-10T00:41:26.999Z,22.01
2022-08-10T00:42:26.004Z,21.96
2022-08-10T00:43:25.976Z,21.96
2022-08-10T00:44:25.964Z,21.97
2022-08-10T00:45:25.954Z,21.96
2022-08-10T00:46:25.981Z,21.94
2022-08-10T00:47:36.955Z,21.88
2022-08-10T00:48:28.165Z,21.88
2022-08-10T00:49:25.915Z,21.90
2022-08-10T00:50:25.901Z,21.81
2022-08-10T00:51:43.225Z,21.93
2022-08-10T00:52:26.985Z,21.75
2022-08-10T00:53:26.244Z,21.91
2022-08-10T00:54:25.863Z,21.82
2022-08-10T00:55:25.873Z,21.80
2022-08-10T00:57:12.635Z,21.75
2022-08-10T00:57:26.821Z,21.75
2022-08-10T00:58:25.813Z,21.67
2022-08-10T00:59:25.801Z,21.74
2022-08-10T01:00:25.861Z,21.71
2022-08-10T01:02:08.566Z,21.71
2022-08-10T01:02:26.956Z,21.65
2022-08-10T01:04:36.427Z,21.73
2022-08-10T01:04:40.286Z,21.65
2022-08-10T01:05:26.883Z,21.65
2022-08-10T01:06:25.726Z,21.60
2022-08-10T01:07:25.712Z,21.60
2022-08-10T01:08:25.705Z,21.62
2022-08-10T01:09:25.691Z,21.63
2022-08-10T01:10:25.843Z,21.56
2022-08-10T01:12:39.043Z,21.55
2022-08-10T01:12:40.292Z,21.59
2022-08-10T01:13:26.647Z,21.50
2022-08-10T01:14:25.638Z,21.45
2022-08-10T01:15:25.663Z,21.47
2022-08-10T01:16:25.619Z,21.47
2022-08-10T01:17:25.602Z,21.45
2022-08-10T01:18:26.590Z,21.45
2022-08-10T01:19:25.582Z,21.51
2022-08-10T01:20:30.234Z,21.44
2022-08-10T01:21:26.557Z,21.37
2022-08-10T01:22:25.549Z,21.40
2022-08-10T01:23:25.538Z,21.38
2022-08-10T01:24:25.527Z,21.34
2022-08-10T01:25:25.648Z,21.43
2022-08-10T01:26:31.072Z,21.32
2022-08-10T01:27:27.453Z,21.34
2022-08-10T01:28:25.488Z,21.30
2022-08-10T01:29:25.475Z,21.26
2022-08-10T01:30:25.610Z,21.29
2022-08-10T01:31:25.466Z,21.30
2022-08-10T01:32:25.441Z,21.23
2022-08-10T01:33:29.904Z,21.20
2022-08-10T01:34:26.421Z,21.28
2022-08-10T01:35:25.405Z,21.20
2022-08-10T01:36:32.522Z,21.22
2022-08-10T01:37:26.383Z,21.19
2022-08-10T01:38:25.408Z,21.20
2022-08-10T01:39:25.455Z,21.16
2022-08-10T01:40:25.352Z,21.20
2022-08-10T01:41:25.341Z,21.14
2022-08-10T01:42:25.332Z,21.14
2022-08-10T01:43:25.354Z,21.08
2022-08-10T01:44:25.310Z,21.11
2022-08-10T01:45:25.301Z,21.05
2022-08-10T01:46:25.289Z,21.10
2022-08-10T01:47:25.275Z,21.04
2022-08-10T01:48:25.307Z,21.10
2022-08-10T01:49:25.254Z,20.97
2022-08-10T01:50:25.244Z,20.97
2022-08-10T01:51:25.238Z,20.98
2022-08-10T01:52:25.223Z,20.95
2022-08-10T01:53:25.213Z,20.98
2022-08-10T01:54:25.242Z,20.98
2022-08-10T01:55:25.186Z,20.85
2022-08-10T01:56:25.178Z,20.83
2022-08-10T01:57:25.170Z,20.85
2022-08-10T01:58:25.164Z,20.83
2022-08-10T01:59:25.216Z,20.83
2022-08-10T02:00:25.143Z,20.83
2022-08-10T02:01:25.171Z,20.86
2022-08-10T02:02:25.126Z,20.80
2022-08-10T02:03:25.106Z,20.79
2022-08-10T02:04:25.127Z,20.74
2022-08-10T02:05:25.085Z,20.71
2022-08-10T02:06:25.073Z,20.71
2022-08-10T02:07:25.066Z,20.68
2022-08-10T02:08:25.048Z,20.73
2022-08-10T02:09:25.071Z,20.74
2022-08-10T02:10:25.028Z,20.65
2022-08-10T02:11:25.014Z,20.67
2022-08-10T02:12:25.002Z,20.65
2022-08-10T02:13:24.994Z,20.65
2022-08-10T02:14:25.011Z,20.55
2022-08-10T02:15:25.973Z,20.61
2022-08-10T02:16:24.973Z,20.64
2022-08-10T02:17:59.193Z,20.67
2022-08-10T02:18:25.944Z,20.56
2022-08-10T02:19:24.952Z,20.56
2022-08-10T02:20:24.925Z,20.61
2022-08-10T02:21:24.907Z,20.50
2022-08-10T02:22:35.974Z,20.49
2022-08-10T02:23:25.883Z,20.42
2022-08-10T02:24:25.027Z,20.46
2022-08-10T02:25:42.123Z,20.37
2022-08-10T02:26:25.852Z,20.41
2022-08-10T02:27:24.843Z,20.41
2022-08-10T02:28:30.032Z,20.34
2022-08-10T02:29:25.816Z,20.42
2022-08-10T02:30:24.807Z,20.42
2022-08-10T02:31:24.798Z,20.41
2022-08-10T02:32:36.352Z,20.39
2022-08-10T02:33:25.804Z,20.30
2022-08-10T02:34:24.760Z,20.33
2022-08-10T02:35:24.748Z,20.29
2022-08-10T02:36:24.736Z,20.27
2022-08-10T02:37:24.734Z,20.34
2022-08-10T02:38:58.437Z,20.34
2022-08-10T02:39:25.788Z,20.36
2022-08-10T02:45:03.201Z,20.34
2022-08-10T02:45:17.610Z,20.27
2022-08-10T02:45:20.984Z,20.23
2022-08-10T02:45:21.245Z,20.34
2022-08-10T02:45:22.444Z,20.30
2022-08-10T02:45:31.084Z,20.18
2022-08-10T02:46:26.340Z,20.23
2022-08-10T02:47:24.619Z,20.25
2022-08-10T02:48:24.672Z,20.15
2022-08-10T02:49:24.596Z,20.19
2022-08-10T02:50:24.584Z,20.14
2022-08-10T02:52:06.813Z,20.18
2022-08-10T02:52:25.609Z,20.14
2022-08-10T02:53:55.071Z,20.15
2022-08-10T02:54:25.537Z,20.11
2022-08-10T02:55:27.116Z,20.08
2022-08-10T02:56:25.514Z,20.09
2022-08-10T02:57:24.530Z,20.07
2022-08-10T02:58:24.497Z,20.08
2022-08-10T02:59:24.485Z,19.96
2022-08-10T03:00:24.470Z,20.04
2022-08-10T03:01:24.528Z,20.00
2022-08-10T03:02:27.732Z,19.99
2022-08-10T03:03:24.440Z,19.97
2022-08-10T03:04:55.939Z,20.00
2022-08-10T03:05:25.412Z,19.84
2022-08-10T03:06:24.401Z,19.93
2022-08-10T03:07:44.779Z,19.97
2022-08-10T03:08:25.413Z,19.90
2022-08-10T03:09:24.372Z,19.92
2022-08-10T03:10:24.371Z,19.87
2022-08-10T03:12:37.805Z,19.90
2022-08-10T03:12:46.954Z,19.89
2022-08-10T03:13:25.361Z,19.78
2022-08-10T03:14:24.315Z,19.77
2022-08-10T03:15:24.308Z,19.74
2022-08-10T03:16:24.304Z,19.74
2022-08-10T03:17:25.290Z,19.72
2022-08-10T03:18:24.305Z,19.72
2022-08-10T03:20:35.960Z,19.79
2022-08-10T03:20:38.144Z,19.72
2022-08-10T03:21:25.240Z,19.64
2022-08-10T03:22:24.228Z,19.62
2022-08-10T03:23:24.249Z,19.68
2022-08-10T03:24:30.477Z,19.67
2022-08-10T03:25:25.199Z,19.70
2022-08-10T03:26:24.185Z,19.62
2022-08-10T03:27:24.174Z,19.63
2022-08-10T03:28:24.187Z,19.57
2022-08-10T03:29:24.151Z,19.60
2022-08-10T03:30:32.550Z,19.64
2022-08-10T03:31:25.128Z,19.63
2022-08-10T03:32:24.118Z,19.60
2022-08-10T03:33:24.149Z,19.60
2022-08-10T03:34:32.703Z,19.56
2022-08-10T03:35:25.088Z,19.54
2022-08-10T03:36:43.572Z,19.53
2022-08-10T03:37:25.056Z,19.47
2022-08-10T03:38:24.050Z,19.47
2022-08-10T03:39:24.129Z,19.45
2022-08-10T03:40:24.031Z,19.49
2022-08-10T03:41:25.020Z,19.49
2022-08-10T03:42:24.007Z,19.45
2022-08-10T03:43:23.997Z,19.41
2022-08-10T03:44:24.012Z,19.39
2022-08-10T03:45:23.974Z,19.41
2022-08-10T03:46:23.962Z,19.38
2022-08-10T03:47:23.951Z,19.38
2022-08-10T03:48:23.940Z,19.42
2022-08-10T03:49:23.968Z,19.37
2022-08-10T03:50:45.410Z,19.41
2022-08-10T03:51:24.906Z,19.35
2022-08-10T03:52:23.896Z,19.35
2022-08-10T03:53:25.333Z,19.39
2022-08-10T03:54:25.044Z,19.32
2022-08-10T03:56:28.981Z,19.32
2022-08-10T03:56:29.976Z,19.30
2022-08-10T03:57:24.836Z,19.32
2022-08-10T03:58:23.833Z,19.27
2022-08-10T03:59:23.851Z,19.22
2022-08-10T04:00:23.829Z,19.27
2022-08-10T04:02:46.908Z,19.26
2022-08-10T04:02:52.871Z,19.20
2022-08-10T04:03:24.777Z,19.20
2022-08-10T04:04:25.455Z,19.20
2022-08-10T04:05:23.765Z,19.20
2022-08-10T04:06:24.745Z,19.20
2022-08-10T04:07:23.729Z,19.20
2022-08-10T04:08:23.722Z,19.19
2022-08-10T04:09:23.746Z,19.12
2022-08-10T04:10:23.699Z,19.08
2022-08-10T04:11:23.692Z,19.13
2022-08-10T04:12:23.680Z,19.09
2022-08-10T04:13:23.665Z,19.04
2022-08-10T04:14:38.675Z,19.07
2022-08-10T04:15:24.646Z,19.05
2022-08-10T04:16:23.629Z,19.08
2022-08-10T04:17:57.136Z,19.08
2022-08-10T04:18:24.608Z,18.98
2022-08-10T04:19:23.628Z,19.04
2022-08-10T04:20:23.597Z,19.08
2022-08-10T04:21:23.579Z,18.98
2022-08-10T04:22:23.566Z,18.97
2022-08-10T04:23:23.555Z,19.00
2022-08-10T04:24:24.633Z,19.00
2022-08-10T04:25:23.535Z,18.96
2022-08-10T04:26:23.528Z,19.07
2022-08-10T04:27:23.542Z,18.91
2022-08-10T04:28:23.507Z,18.93
2022-08-10T04:29:23.499Z,18.91
2022-08-10T04:30:23.481Z,18.88
2022-08-10T04:31:23.471Z,18.93
2022-08-10T04:32:23.492Z,18.89
2022-08-10T04:33:23.453Z,18.93
2022-08-10T04:34:23.435Z,18.89
2022-08-10T04:35:23.429Z,18.86
2022-08-10T04:36:23.413Z,18.91
2022-08-10T04:37:23.438Z,18.86
2022-08-10T04:38:23.392Z,18.88
2022-08-10T04:39:23.453Z,18.88
2022-08-10T04:40:28.910Z,18.88
2022-08-10T04:41:24.359Z,18.89
2022-08-10T04:42:23.382Z,18.85
2022-08-10T04:43:23.339Z,18.89
2022-08-10T04:44:23.331Z,18.85
2022-08-10T04:45:23.362Z,18.93
2022-08-10T04:46:42.732Z,18.85
2022-08-10T04:47:51.255Z,18.81
2022-08-10T04:48:43.039Z,18.86
2022-08-10T04:49:54.099Z,18.81
2022-08-10T04:50:24.308Z,18.78
2022-08-10T04:51:23.262Z,18.81
2022-08-10T04:52:23.244Z,18.78
2022-08-10T04:53:23.234Z,18.83
2022-08-10T04:54:23.218Z,18.71
2022-08-10T04:55:24.223Z,18.86
2022-08-10T04:56:31.979Z,18.82
2022-08-10T04:57:24.190Z,18.78
2022-08-10T04:58:23.175Z,18.79
2022-08-10T04:59:23.203Z,18.88
2022-08-10T05:00:23.155Z,18.71
2022-08-10T05:01:25.010Z,18.74
2022-08-10T05:02:31.172Z,18.82
2022-08-10T05:03:24.122Z,18.83
2022-08-10T05:04:35.487Z,18.81
2022-08-10T05:05:24.099Z,18.76
2022-08-10T05:06:23.105Z,18.74
2022-08-10T05:07:23.387Z,18.81
2022-08-10T05:08:23.071Z,18.82
2022-08-10T05:09:23.063Z,18.81
2022-08-10T05:10:23.047Z,18.78
2022-08-10T05:11:23.885Z,18.74
2022-08-10T05:12:23.057Z,18.83
2022-08-10T05:13:23.018Z,18.93
2022-08-10T05:14:23.007Z,18.83
2022-08-10T05:15:22.991Z,18.82
2022-08-10T05:16:31.601Z,18.82
2022-08-10T05:17:24.078Z,18.94
2022-08-10T05:18:22.959Z,18.83
2022-08-10T05:20:03.684Z,18.93
2022-08-10T05:20:23.967Z,18.91
2022-08-10T05:21:57.064Z,18.85
2022-08-10T05:22:23.953Z,18.79
2022-08-10T05:23:22.914Z,18.79
2022-08-10T05:24:22.901Z,18.97
2022-08-10T05:25:22.884Z,18.89
2022-08-10T05:26:22.877Z,18.91
2022-08-10T05:27:22.887Z,18.88
2022-08-10T05:28:23.629Z,18.83
2022-08-10T05:29:22.843Z,18.86
2022-08-10T05:30:22.828Z,18.86
2022-08-10T05:31:24.134Z,19.00
2022-08-10T05:32:22.840Z,18.89
2022-08-10T05:33:22.804Z,18.98
2022-08-10T05:34:22.785Z,19.01
2022-08-10T05:35:22.780Z,19.01
2022-08-10T05:36:22.766Z,19.01
2022-08-10T05:38:10.428Z,18.98
2022-08-10T05:38:23.746Z,19.07
2022-08-10T05:39:28.808Z,19.07
2022-08-10T05:40:23.730Z,18.94
2022-08-10T05:41:22.715Z,19.05
2022-08-10T05:42:22.732Z,19.08
2022-08-10T05:43:22.699Z,19.16
2022-08-10T05:44:22.672Z,19.17
2022-08-10T05:45:22.673Z,19.08
2022-08-10T05:46:22.661Z,19.16
2022-08-10T05:47:22.842Z,19.16
2022-08-10T05:48:57.500Z,19.23
2022-08-10T05:49:23.625Z,19.16
2022-08-10T05:50:22.610Z,19.24
2022-08-10T05:51:22.631Z,19.26
2022-08-10T05:52:22.589Z,19.17
2022-08-10T05:53:59.207Z,19.27
2022-08-10T05:54:23.571Z,19.32
2022-08-10T05:55:22.601Z,19.30
2022-08-10T05:56:22.553Z,19.34
2022-08-10T05:57:22.537Z,19.31
2022-08-10T05:58:22.524Z,19.41
2022-08-10T06:00:11.182Z,19.44
2022-08-10T06:00:37.322Z,19.44
2022-08-10T06:01:23.565Z,19.47
2022-08-10T06:02:30.934Z,19.41
2022-08-10T06:03:23.931Z,19.47
2022-08-10T06:04:22.461Z,19.45
2022-08-10T06:05:22.450Z,19.44
2022-08-10T06:06:24.900Z,19.45
2022-08-10T06:07:22.453Z,19.53
2022-08-10T06:08:22.412Z,19.49
2022-08-10T06:09:22.405Z,19.56
2022-08-10T06:10:31.068Z,19.62
2022-08-10T06:12:29.262Z,19.60
2022-08-10T06:12:35.260Z,19.60
2022-08-10T06:13:26.917Z,19.63
2022-08-10T06:14:28.582Z,19.63
2022-08-10T06:15:50.855Z,19.70
2022-08-10T06:16:23.319Z,19.70
2022-08-10T06:17:22.312Z,19.74
2022-08-10T06:18:22.300Z,19.77
2022-08-10T06:19:22.290Z,19.74
2022-08-10T06:20:22.310Z,19.75
2022-08-10T06:21:22.270Z,19.71
2022-08-10T06:22:22.256Z,19.78
2022-08-10T06:23:22.244Z,19.90
2022-08-10T06:24:22.232Z,19.86
2022-08-10T06:26:08.209Z,19.97
2022-08-10T06:26:23.362Z,19.87
2022-08-10T06:27:34.642Z,19.94
2022-08-10T06:28:23.223Z,19.97
2022-08-10T06:29:22.180Z,20.02
2022-08-10T06:30:22.164Z,20.05
2022-08-10T06:31:22.158Z,19.97
2022-08-10T06:32:22.146Z,20.05
2022-08-10T06:33:22.168Z,20.08
2022-08-10T06:34:22.124Z,20.15
2022-08-10T06:35:22.119Z,20.15
2022-08-10T06:36:22.100Z,20.18
2022-08-10T06:37:22.091Z,20.23
2022-08-10T06:38:22.079Z,20.25
2022-08-10T06:39:35.922Z,20.27
2022-08-10T06:40:23.147Z,20.18
2022-08-10T06:41:22.052Z,20.34
2022-08-10T06:42:23.029Z,20.39
2022-08-10T06:43:22.053Z,20.41
2022-08-10T06:44:22.015Z,20.33
2022-08-10T06:45:22.011Z,20.26
2022-08-10T06:46:22.003Z,20.42
2022-08-10T06:47:22.830Z,20.42
2022-08-10T06:48:22.006Z,20.41
2022-08-10T06:49:21.955Z,20.37
2022-08-10T06:50:34.894Z,20.37
2022-08-10T06:51:22.938Z,20.42
2022-08-10T06:52:21.950Z,20.56
2022-08-10T06:53:21.916Z,20.52
2022-08-10T06:54:21.909Z,20.63
2022-08-10T06:55:21.892Z,20.56
2022-08-10T06:56:36.727Z,20.60
2022-08-10T06:57:23.018Z,20.68
2022-08-10T06:58:23.737Z,20.58
2022-08-10T06:59:22.950Z,20.67
2022-08-10T07:00:21.846Z,20.68
2022-08-10T07:01:22.078Z,20.74
2022-08-10T07:02:21.818Z,20.73
2022-08-10T07:03:21.807Z,20.88
2022-08-10T07:04:32.743Z,20.88
2022-08-10T07:05:22.783Z,20.82
2022-08-10T07:06:21.817Z,20.82
2022-08-10T07:07:21.760Z,20.93
2022-08-10T07:08:21.751Z,21.00
2022-08-10T07:09:21.747Z,20.97
2022-08-10T07:10:21.732Z,21.03
2022-08-10T07:11:21.715Z,21.04
2022-08-10T07:12:21.744Z,21.07
2022-08-10T07:14:16.176Z,21.19
2022-08-10T07:14:22.687Z,21.18
2022-08-10T07:15:21.701Z,21.19
2022-08-10T07:16:21.667Z,21.23
2022-08-10T07:17:21.655Z,21.34
2022-08-10T07:18:21.646Z,21.29
2022-08-10T07:19:21.630Z,21.32
2022-08-10T07:20:21.733Z,21.37
2022-08-10T07:21:21.608Z,21.43
2022-08-10T07:23:08.153Z,21.44
2022-08-10T07:23:57.083Z,21.47
2022-08-10T07:24:22.575Z,21.50
2022-08-10T07:25:21.587Z,21.55
2022-08-10T07:26:21.554Z,21.56
2022-08-10T07:27:21.540Z,21.59
2022-08-10T07:28:21.537Z,21.60
2022-08-10T07:29:53.054Z,21.71
2022-08-10T07:30:22.542Z,21.77
2022-08-10T07:31:29.613Z,21.81
2022-08-10T07:32:22.488Z,21.91
2022-08-10T07:33:21.476Z,21.84
2022-08-10T07:34:28.486Z,21.88
2022-08-10T07:35:22.500Z,21.94
2022-08-10T07:36:21.445Z,21.97
2022-08-10T07:37:21.441Z,22.01
2022-08-10T07:38:21.423Z,22.04
2022-08-10T07:39:57.999Z,22.04
2022-08-10T07:40:22.586Z,22.19
2022-08-10T07:41:21.385Z,22.21
2022-08-10T07:42:21.379Z,22.27
2022-08-10T07:43:21.424Z,22.30
2022-08-10T07:44:21.359Z,22.31
2022-08-10T07:45:21.355Z,22.43
2022-08-10T07:46:21.336Z,22.38
2022-08-10T07:47:46.356Z,22.46
2022-08-10T07:48:22.341Z,22.53
2022-08-10T07:49:21.301Z,22.56
2022-08-10T07:50:21.323Z,22.61
2022-08-10T07:51:21.293Z,22.74
2022-08-10T07:52:21.273Z,22.74
2022-08-10T07:53:21.296Z,22.76
2022-08-10T07:54:21.255Z,22.89
2022-08-10T07:56:04.959Z,22.86
2022-08-10T07:56:47.289Z,22.93
2022-08-10T07:57:31.084Z,22.99
2022-08-10T07:58:22.243Z,23.06
2022-08-10T07:59:21.197Z,23.11
2022-08-10T08:00:21.188Z,23.22
2022-08-10T08:01:21.214Z,23.23
2022-08-10T08:02:21.220Z,23.37
2022-08-10T08:03:21.156Z,23.25
2022-08-10T08:04:21.141Z,23.37
2022-08-10T08:05:54.838Z,23.34
2022-08-10T08:06:22.117Z,23.46
2022-08-10T08:07:21.561Z,23.54
2022-08-10T08:08:21.132Z,23.55
2022-08-10T08:09:21.089Z,23.60
2022-08-10T08:10:21.074Z,23.66
2022-08-10T08:11:25.575Z,23.73
2022-08-10T08:12:22.052Z,23.74
2022-08-10T08:13:21.098Z,23.84
2022-08-10T08:14:21.024Z,23.86
2022-08-10T08:16:20.900Z,23.91
2022-08-10T08:16:22.286Z,23.91
2022-08-10T08:17:20.993Z,24.06
2022-08-10T08:18:25.275Z,24.04
2022-08-10T08:19:27.264Z,24.08
2022-08-10T08:20:21.967Z,24.18
2022-08-10T08:24:04.410Z,24.33
2022-08-10T08:24:10.166Z,24.25
2022-08-10T08:24:31.348Z,24.40
2022-08-10T08:24:32.292Z,24.40
2022-08-10T08:25:21.901Z,24.52
2022-08-10T08:26:20.899Z,24.58
2022-08-10T08:27:20.882Z,24.65
2022-08-10T08:28:20.868Z,24.70
2022-08-10T08:29:20.893Z,24.62
2022-08-10T08:30:27.692Z,24.70
2022-08-10T08:31:21.835Z,24.74
2022-08-10T08:32:20.830Z,24.85
2022-08-10T08:33:41.364Z,24.91
2022-08-10T08:34:21.843Z,24.93
2022-08-10T08:35:20.799Z,24.93
2022-08-10T08:36:20.791Z,25.04
2022-08-10T08:38:32.172Z,25.04
2022-08-10T08:38:32.296Z,25.16
2022-08-10T08:39:21.842Z,25.18
2022-08-10T08:40:20.754Z,25.21
2022-08-10T08:41:20.733Z,25.27
2022-08-10T08:42:20.725Z,25.26
2022-08-10T08:43:21.676Z,25.36
2022-08-10T08:44:20.699Z,25.41
2022-08-10T08:45:20.717Z,25.43
2022-08-10T08:46:20.681Z,25.56
2022-08-10T08:48:03.581Z,25.48
2022-08-10T08:48:21.654Z,25.56
2022-08-10T08:50:09.208Z,25.70
2022-08-10T08:50:21.637Z,25.66
2022-08-10T08:52:17.052Z,25.77
2022-08-10T08:52:21.612Z,25.83
2022-08-10T08:53:22.220Z,25.74
2022-08-10T08:54:20.594Z,25.89
2022-08-10T08:56:04.229Z,26.00
2022-08-10T08:56:21.570Z,26.05
2022-08-10T08:57:50.273Z,26.19
2022-08-10T08:58:21.586Z,26.24
2022-08-10T08:59:20.537Z,26.23
2022-08-10T09:00:20.574Z,26.34
2022-08-10T09:01:20.632Z,26.39
2022-08-10T09:02:20.508Z,26.42
2022-08-10T09:03:23.926Z,26.52
2022-08-10T09:04:22.222Z,26.61
2022-08-10T09:05:20.528Z,26.63
2022-08-10T09:06:20.488Z,26.73
2022-08-10T09:07:39.475Z,26.78
2022-08-10T09:08:21.442Z,26.82
2022-08-10T09:09:20.433Z,26.85
2022-08-10T09:10:20.421Z,26.90
2022-08-10T09:11:20.409Z,27.05
2022-08-10T09:12:20.444Z,27.17
2022-08-10T09:13:20.390Z,27.35
2022-08-10T09:14:25.730Z,27.32
2022-08-10T09:15:39.877Z,27.52
2022-08-10T09:16:21.360Z,27.63
2022-08-10T09:17:20.375Z,27.76
2022-08-10T09:18:20.339Z,27.91
2022-08-10T09:19:35.434Z,28.00
2022-08-10T09:20:21.314Z,28.16
2022-08-10T09:21:20.298Z,28.32
2022-08-10T09:22:20.320Z,28.44
2022-08-10T09:23:20.282Z,28.57
2022-08-10T09:24:20.532Z,28.68
2022-08-10T09:25:20.260Z,28.77
2022-08-10T09:26:20.253Z,28.96
2022-08-10T09:27:20.286Z,28.90
2022-08-10T09:28:20.230Z,28.86
2022-08-10T09:29:21.219Z,28.89
2022-08-10T09:30:20.213Z,28.94
2022-08-10T09:31:22.923Z,28.90
2022-08-10T09:36:19.794Z,29.03
2022-08-10T09:36:20.040Z,29.02
2022-08-10T09:36:25.143Z,29.00
2022-08-10T09:36:27.000Z,29.04
2022-08-10T09:36:32.277Z,29.06
2022-08-10T09:37:21.131Z,29.13
2022-08-10T09:38:20.123Z,29.10
2022-08-10T09:40:08.480Z,29.17
2022-08-10T09:40:59.008Z,29.17
2022-08-10T09:41:21.191Z,29.13
2022-08-10T09:42:20.084Z,29.21
2022-08-10T09:43:25.811Z,29.28
2022-08-10T09:44:21.059Z,29.28
2022-08-10T09:45:20.053Z,29.28
2022-08-10T09:46:20.065Z,29.36
2022-08-10T09:47:20.026Z,29.34
2022-08-10T09:48:20.019Z,29.41
2022-08-10T09:49:22.399Z,29.44
2022-08-10T09:50:21.003Z,29.37
2022-08-10T09:51:44.251Z,29.44
2022-08-10T09:52:20.967Z,29.43
2022-08-10T09:53:19.961Z,29.44
2022-08-10T09:54:19.948Z,29.52
2022-08-10T09:55:19.942Z,29.54
2022-08-10T09:56:22.347Z,29.59
2022-08-10T09:57:43.358Z,29.56
2022-08-10T09:58:20.908Z,29.66
2022-08-10T09:59:29.308Z,29.63
2022-08-10T10:00:20.886Z,29.61
2022-08-10T10:01:56.344Z,29.66
2022-08-10T10:02:20.915Z,29.74
2022-08-10T10:03:23.985Z,29.76
2022-08-10T10:04:20.848Z,29.80
2022-08-10T10:05:19.830Z,29.91
2022-08-10T10:06:19.824Z,29.89
2022-08-10T10:07:19.819Z,29.91
2022-08-10T10:08:19.834Z,30.13
2022-08-10T10:09:19.789Z,30.10
2022-08-10T10:10:20.782Z,30.11
2022-08-10T10:11:19.770Z,30.17
2022-08-10T10:12:19.763Z,30.28
2022-08-10T10:13:19.775Z,30.49
2022-08-10T10:14:20.737Z,30.55
2022-08-10T10:15:23.986Z,30.75
2022-08-10T10:16:20.721Z,30.89
2022-08-10T10:17:19.701Z,31.14
2022-08-10T10:18:19.721Z,31.34
2022-08-10T10:19:19.684Z,31.59
2022-08-10T10:20:19.676Z,31.78
2022-08-10T10:21:23.903Z,32.01
2022-08-10T10:22:20.648Z,32.23
2022-08-10T10:23:19.675Z,32.41
2022-08-10T10:24:21.655Z,32.69
2022-08-10T10:25:21.293Z,32.90
2022-08-10T10:26:19.615Z,33.14
2022-08-10T10:27:19.600Z,33.37
2022-08-10T10:28:19.619Z,33.67
2022-08-10T10:29:57.388Z,33.70
2022-08-10T10:30:20.569Z,34.00
2022-08-10T10:31:19.564Z,34.19
2022-08-10T10:32:19.545Z,34.38
2022-08-10T10:33:19.569Z,34.70
2022-08-10T10:34:19.531Z,34.78
2022-08-10T10:35:19.518Z,34.91
2022-08-10T10:36:19.511Z,35.05
2022-08-10T10:37:19.498Z,35.21
2022-08-10T10:38:19.507Z,35.39
2022-08-10T10:39:23.755Z,35.38
2022-08-10T10:40:19.468Z,35.50
2022-08-10T10:41:19.452Z,35.63
2022-08-10T10:42:42.302Z,35.69
2022-08-10T10:43:20.475Z,35.87
2022-08-10T10:44:19.427Z,35.81
2022-08-10T10:45:19.422Z,35.83
2022-08-10T10:46:23.214Z,35.79
2022-08-10T10:47:19.397Z,35.88
2022-08-10T10:48:24.157Z,35.85
2022-08-10T10:49:20.409Z,35.76
2022-08-10T10:50:19.400Z,35.77
2022-08-10T10:51:19.353Z,35.73
2022-08-10T10:52:19.356Z,35.69
2022-08-10T10:53:19.339Z,35.70
2022-08-10T10:54:19.336Z,35.70
2022-08-10T10:55:19.365Z,35.61
2022-08-10T10:56:19.312Z,35.61
2022-08-10T10:57:19.296Z,35.57
2022-08-10T10:58:21.164Z,35.54
2022-08-10T10:59:56.829Z,35.54
2022-08-10T11:00:20.309Z,35.60
2022-08-10T11:01:19.298Z,35.58
2022-08-10T11:02:19.249Z,35.57
2022-08-10T11:03:19.240Z,35.56
2022-08-10T11:04:19.230Z,35.58
2022-08-10T11:05:19.246Z,35.65
2022-08-10T11:06:19.204Z,35.58
2022-08-10T11:07:21.976Z,35.60
2022-08-10T11:08:20.182Z,35.60
2022-08-10T11:10:03.747Z,35.58
2022-08-10T11:10:32.490Z,35.53
2022-08-10T11:12:00.634Z,35.60
2022-08-10T11:12:22.331Z,35.66
2022-08-10T11:14:25.832Z,35.77
2022-08-10T11:14:27.499Z,35.70
2022-08-10T11:15:20.118Z,35.73
2022-08-10T11:16:19.148Z,35.68
2022-08-10T11:17:19.091Z,35.70
2022-08-10T11:18:19.085Z,35.69
2022-08-10T11:19:19.065Z,35.65
2022-08-10T11:20:19.055Z,35.60
2022-08-10T11:21:19.075Z,35.58
2022-08-10T11:22:19.034Z,35.61
2022-08-10T11:23:19.028Z,35.61
2022-08-10T11:24:47.741Z,35.58
2022-08-10T11:25:20.010Z,35.56
2022-08-10T11:26:19.041Z,35.53
2022-08-10T11:27:22.219Z,35.58
2022-08-10T11:28:19.118Z,35.61
2022-08-10T11:29:18.980Z,35.54
2022-08-10T11:30:18.958Z,35.58
2022-08-10T11:31:18.951Z,35.54
2022-08-10T11:32:20.588Z,35.57
2022-08-10T11:33:32.734Z,35.51
2022-08-10T11:34:48.626Z,35.48
2022-08-10T11:35:19.902Z,35.58
2022-08-10T11:36:18.896Z,35.60
2022-08-10T11:37:18.912Z,35.53
2022-08-10T11:38:29.620Z,35.65
2022-08-10T11:39:19.931Z,35.56
2022-08-10T11:40:18.854Z,35.60
2022-08-10T11:42:08.023Z,35.60
2022-08-10T11:42:28.987Z,35.63
2022-08-10T11:43:21.166Z,35.63
2022-08-10T11:44:18.823Z,35.70
2022-08-10T11:45:18.798Z,35.68
2022-08-10T11:46:28.103Z,35.84
2022-08-10T11:47:19.810Z,35.83
2022-08-10T11:48:53.462Z,35.75
2022-08-10T11:49:19.757Z,35.79
2022-08-10T11:50:18.746Z,35.88
2022-08-10T11:51:18.746Z,35.87
2022-08-10T11:52:18.769Z,35.95
2022-08-10T11:53:18.720Z,35.94
2022-08-10T11:54:18.703Z,36.02
2022-08-10T11:55:18.703Z,35.95
2022-08-10T11:56:18.703Z,36.00
2022-08-10T11:57:18.701Z,36.11
2022-08-10T11:58:18.661Z,36.20
2022-08-10T11:59:18.658Z,36.23
2022-08-10T12:00:18.648Z,36.26
2022-08-10T12:01:18.636Z,36.29
2022-08-10T12:02:18.687Z,36.32
2022-08-10T12:03:18.617Z,36.41
2022-08-10T12:04:18.607Z,36.47
2022-08-10T12:05:18.596Z,36.48
2022-08-10T12:06:33.701Z,36.52
2022-08-10T12:10:06.916Z,36.70
2022-08-10T12:10:09.526Z,36.76
2022-08-10T12:10:10.185Z,36.56
2022-08-10T12:10:19.537Z,36.71
2022-08-10T12:11:24.008Z,36.76
2022-08-10T12:12:19.541Z,36.82
2022-08-10T12:13:18.518Z,36.91
2022-08-10T12:14:21.736Z,36.91
2022-08-10T12:15:18.487Z,37.03
2022-08-10T12:16:18.489Z,37.08
2022-08-10T12:17:18.505Z,37.12
2022-08-10T12:18:18.461Z,37.19
2022-08-10T12:19:18.464Z,37.03
2022-08-10T12:20:18.435Z,37.12
2022-08-10T12:21:21.901Z,37.25
2022-08-10T12:22:18.457Z,37.25
2022-08-10T12:23:18.411Z,37.37
2022-08-10T12:24:18.403Z,37.42
2022-08-10T12:25:55.783Z,37.47
2022-08-10T12:26:19.379Z,37.49
2022-08-10T12:27:18.371Z,37.49
2022-08-10T12:28:18.388Z,37.55
2022-08-10T12:29:21.388Z,37.51
2022-08-10T12:30:19.341Z,37.58
2022-08-10T12:31:18.336Z,37.67
2022-08-10T12:32:18.315Z,37.74
2022-08-10T12:33:19.384Z,37.73
2022-08-10T12:34:18.300Z,37.91
2022-08-10T12:35:21.771Z,37.91
2022-08-10T12:36:18.906Z,37.91
2022-08-10T12:37:18.277Z,37.98
2022-08-10T12:38:18.305Z,38.04
2022-08-10T12:39:18.359Z,38.02
2022-08-10T12:40:34.434Z,38.02
2022-08-10T12:41:19.235Z,38.20
2022-08-10T12:42:38.910Z,38.23
2022-08-10T12:44:07.013Z,38.22
2022-08-10T12:44:19.196Z,38.14
2022-08-10T12:45:18.197Z,38.23
2022-08-10T12:46:18.175Z,38.28
2022-08-10T12:47:18.249Z,38.29
2022-08-10T12:48:18.165Z,38.33
2022-08-10T12:49:18.149Z,38.37
2022-08-10T12:50:30.297Z,38.42
2022-08-10T12:51:19.134Z,38.47
2022-08-10T12:52:18.151Z,38.52